createdAt,value
2018-07-21T00:02:22.125Z,8.20
2018-07-21T00:04:50.423Z,7.62
2018-07-21T00:07:18.884Z,7.35
2018-07-21T00:09:47.107Z,7.08
2018-07-21T00:12:15.394Z,7.78
2018-07-21T00:14:43.718Z,6.85
2018-07-21T00:17:12.118Z,7.30
2018-07-21T00:19:40.374Z,7.33
2018-07-21T00:22:08.640Z,7.58
2018-07-21T00:24:36.983Z,7.15
2018-07-21T00:27:05.191Z,7.08
2018-07-21T00:29:33.429Z,7.10
2018-07-21T00:32:01.691Z,7.15
2018-07-21T00:34:29.923Z,6.37
2018-07-21T00:36:58.168Z,6.12
2018-07-21T00:39:26.447Z,6.10
2018-07-21T00:41:54.686Z,6.37
2018-07-21T00:44:22.948Z,6.00
2018-07-21T00:46:51.217Z,6.00
2018-07-21T00:49:19.455Z,6.17
2018-07-21T00:51:47.770Z,6.53
2018-07-21T00:54:16.027Z,6.60
2018-07-21T00:56:44.271Z,6.65
2018-07-21T00:59:12.532Z,7.10
2018-07-21T01:01:40.771Z,6.53
2018-07-21T01:04:09.026Z,6.67
2018-07-21T01:06:37.273Z,6.47
2018-07-21T01:09:07.856Z,6.10
2018-07-21T01:11:36.164Z,6.08
2018-07-21T01:14:04.429Z,6.72
2018-07-21T01:16:32.732Z,6.20
2018-07-21T01:19:00.974Z,6.30
2018-07-21T01:21:29.219Z,6.80
2018-07-21T01:23:57.458Z,6.10
2018-07-21T01:26:25.760Z,6.10
2018-07-21T01:28:54.052Z,5.70
2018-07-21T01:31:22.372Z,6.17
2018-07-21T01:33:50.620Z,5.70
2018-07-21T01:36:18.895Z,5.97
2018-07-21T01:38:47.143Z,5.65
2018-07-21T01:41:15.395Z,6.17
2018-07-21T01:43:43.622Z,5.87
2018-07-21T01:46:11.844Z,6.03
2018-07-21T01:48:40.065Z,6.12
2018-07-21T01:51:08.286Z,5.90
2018-07-21T01:53:36.522Z,5.97
2018-07-21T01:56:04.751Z,6.05
2018-07-21T01:58:32.966Z,5.92
2018-07-21T02:01:01.187Z,5.83
2018-07-21T02:03:29.377Z,5.72
2018-07-21T02:05:57.580Z,5.70
2018-07-21T02:08:25.812Z,5.53
2018-07-21T02:10:54.022Z,5.60
2018-07-21T02:13:22.251Z,5.97
2018-07-21T02:15:50.475Z,5.75
2018-07-21T02:18:18.694Z,5.83
2018-07-21T02:20:46.885Z,5.40
2018-07-21T02:23:15.107Z,5.53
2018-07-21T02:25:43.313Z,5.80
2018-07-21T02:28:11.540Z,6.03
2018-07-21T02:30:39.721Z,5.97
2018-07-21T02:33:07.948Z,5.85
2018-07-21T02:35:36.143Z,5.92
2018-07-21T02:38:04.374Z,5.90
2018-07-21T02:40:32.603Z,6.05
2018-07-21T02:43:00.818Z,5.80
2018-07-21T02:45:29.415Z,5.67
2018-07-21T02:47:57.589Z,5.78
2018-07-21T02:50:25.795Z,6.08
2018-07-21T02:52:54.014Z,5.75
2018-07-21T02:55:22.188Z,6.10
2018-07-21T02:57:50.423Z,6.28
2018-07-21T03:00:18.648Z,7.17
2018-07-21T03:02:46.859Z,6.30
2018-07-21T03:05:15.088Z,6.08
2018-07-21T03:07:43.299Z,7.03
2018-07-21T03:10:11.611Z,6.62
2018-07-21T03:12:39.864Z,6.65
2018-07-21T03:15:08.091Z,7.70
2018-07-21T03:17:36.331Z,6.83
2018-07-21T03:20:04.554Z,7.20
2018-07-21T03:22:32.773Z,7.33
2018-07-21T03:25:01.028Z,7.05
2018-07-21T03:27:29.233Z,7.62
2018-07-21T03:29:57.442Z,6.75
2018-07-21T03:32:25.654Z,6.97
2018-07-21T03:34:53.870Z,7.47
2018-07-21T03:37:22.110Z,6.75
2018-07-21T03:39:50.309Z,7.40
2018-07-21T03:42:18.506Z,6.97
2018-07-21T03:44:46.717Z,7.20
2018-07-21T03:47:14.902Z,7.37
2018-07-21T03:49:43.143Z,7.30
2018-07-21T03:52:11.359Z,7.67
2018-07-21T03:54:39.554Z,7.40
2018-07-21T03:57:07.783Z,7.12
2018-07-21T03:59:35.994Z,7.62
2018-07-21T04:02:04.197Z,7.15
2018-07-21T04:04:32.398Z,7.05
2018-07-21T04:07:00.588Z,6.85
2018-07-21T04:09:28.779Z,7.12
2018-07-21T04:11:56.985Z,7.60
2018-07-21T04:14:25.209Z,7.33
2018-07-21T04:16:53.404Z,7.35
2018-07-21T04:19:21.610Z,7.42
2018-07-21T04:21:49.810Z,7.17
2018-07-21T04:24:18.060Z,6.85
2018-07-21T04:26:46.210Z,7.03
2018-07-21T04:29:14.456Z,7.37
2018-07-21T04:31:42.676Z,6.90
2018-07-21T04:34:10.888Z,7.17
2018-07-21T04:36:39.069Z,7.17
2018-07-21T04:39:08.656Z,7.90
2018-07-21T04:41:36.826Z,7.20
2018-07-21T04:44:05.546Z,7.28
2018-07-21T04:46:33.748Z,7.65
2018-07-21T04:49:02.041Z,6.33
2018-07-21T04:51:30.248Z,7.00
2018-07-21T04:53:58.511Z,6.20
2018-07-21T04:56:26.716Z,6.15
2018-07-21T04:58:54.924Z,6.22
2018-07-21T05:01:23.154Z,6.22
2018-07-21T05:03:51.378Z,6.45
2018-07-21T05:06:19.627Z,6.60
2018-07-21T05:08:47.880Z,6.10
2018-07-21T05:11:16.139Z,6.12
2018-07-21T05:13:44.339Z,6.40
2018-07-21T05:16:12.556Z,6.47
2018-07-21T05:18:40.778Z,6.50
2018-07-21T05:21:09.000Z,6.60
2018-07-21T05:23:37.231Z,6.67
2018-07-21T05:26:05.684Z,6.28
2018-07-21T05:28:33.880Z,6.53
2018-07-21T05:31:02.105Z,6.00
2018-07-21T05:33:30.524Z,6.70
2018-07-21T05:35:58.755Z,7.03
2018-07-21T05:38:26.972Z,6.15
2018-07-21T05:40:55.195Z,6.03
2018-07-21T05:43:23.399Z,6.33
2018-07-21T05:45:51.617Z,5.97
2018-07-21T05:48:19.820Z,6.83
2018-07-21T05:50:48.053Z,6.78
2018-07-21T05:53:16.267Z,6.87
2018-07-21T05:55:44.498Z,6.50
2018-07-21T05:58:12.711Z,6.10
2018-07-21T06:00:40.951Z,5.70
2018-07-21T06:03:09.303Z,5.50
2018-07-21T06:05:37.472Z,5.37
2018-07-21T06:08:05.946Z,5.90
2018-07-21T06:10:34.185Z,5.78
2018-07-21T06:13:02.422Z,6.03
2018-07-21T06:15:30.619Z,5.75
2018-07-21T06:17:58.846Z,5.85
2018-07-21T06:20:27.179Z,6.10
2018-07-21T06:22:55.398Z,5.70
2018-07-21T06:25:23.629Z,5.92
2018-07-21T06:27:51.948Z,6.20
2018-07-21T06:30:20.169Z,6.40
2018-07-21T06:32:48.406Z,6.35
2018-07-21T06:35:16.596Z,5.92
2018-07-21T06:37:44.821Z,6.47
2018-07-21T06:40:13.059Z,6.22
2018-07-21T06:42:41.265Z,6.35
2018-07-21T06:45:09.545Z,6.05
2018-07-21T06:47:37.748Z,5.80
2018-07-21T06:50:06.241Z,6.10
2018-07-21T06:52:34.519Z,5.80
2018-07-21T06:55:02.745Z,6.62
2018-07-21T06:57:30.979Z,6.35
2018-07-21T06:59:59.174Z,5.92
2018-07-21T07:02:27.443Z,5.78
2018-07-21T07:04:55.660Z,5.20
2018-07-21T07:07:23.897Z,5.30
2018-07-21T07:09:52.201Z,5.15
2018-07-21T07:12:20.460Z,4.60
2018-07-21T07:14:48.688Z,4.87
2018-07-21T07:17:16.927Z,5.05
2018-07-21T07:19:45.177Z,4.90
2018-07-21T07:22:13.413Z,5.05
2018-07-21T07:24:41.643Z,5.55
2018-07-21T07:27:09.847Z,5.85
2018-07-21T07:29:38.048Z,4.90
2018-07-21T07:32:06.951Z,5.33
2018-07-21T07:34:35.392Z,5.85
2018-07-21T07:37:03.351Z,5.90
2018-07-21T07:39:31.589Z,5.83
2018-07-21T07:42:06.404Z,5.85
2018-07-21T07:44:34.570Z,5.83
2018-07-21T07:47:02.783Z,6.22
2018-07-21T07:49:31.028Z,6.17
2018-07-21T07:51:59.236Z,6.33
2018-07-21T07:54:27.495Z,6.53
2018-07-21T07:56:55.687Z,6.90
2018-07-21T07:59:23.964Z,6.60
2018-07-21T08:01:52.291Z,5.92
2018-07-21T08:04:20.500Z,6.42
2018-07-21T08:06:48.810Z,5.92
2018-07-21T08:09:17.953Z,5.75
2018-07-21T08:11:46.172Z,6.85
2018-07-21T08:14:14.442Z,5.75
2018-07-21T08:16:42.629Z,5.60
2018-07-21T08:19:10.840Z,5.75
2018-07-21T08:21:39.128Z,5.28
2018-07-21T08:24:07.616Z,5.12
2018-07-21T08:26:35.827Z,4.70
2018-07-21T08:29:04.363Z,5.78
2018-07-21T08:31:32.621Z,5.25
2018-07-21T08:34:00.887Z,5.60
2018-07-21T08:36:29.087Z,5.22
2018-07-21T08:38:57.419Z,4.78
2018-07-21T08:41:25.644Z,4.70
2018-07-21T08:43:53.916Z,4.53
2018-07-21T08:46:22.140Z,4.53
2018-07-21T08:48:50.362Z,4.67
2018-07-21T08:51:18.593Z,4.58
2018-07-21T08:53:46.846Z,4.45
2018-07-21T08:56:15.080Z,4.28
2018-07-21T08:58:43.326Z,4.08
2018-07-21T09:01:11.596Z,4.50
2018-07-21T09:03:39.885Z,4.12
2018-07-21T09:06:08.095Z,4.22
2018-07-21T09:08:36.268Z,4.10
2018-07-21T09:11:04.497Z,4.05
2018-07-21T09:13:32.718Z,4.47
2018-07-21T09:16:00.974Z,3.62
2018-07-21T09:18:29.199Z,3.17
2018-07-21T09:20:57.415Z,3.70
2018-07-21T09:23:25.672Z,3.70
2018-07-21T09:25:54.135Z,3.55
2018-07-21T09:28:22.386Z,3.75
2018-07-21T09:30:50.636Z,3.33
2018-07-21T09:33:19.179Z,3.40
2018-07-21T09:35:47.435Z,3.47
2018-07-21T09:38:15.646Z,3.45
2018-07-21T09:40:43.877Z,3.50
2018-07-21T09:43:12.097Z,3.30
2018-07-21T09:45:40.331Z,3.02
2018-07-21T09:48:08.559Z,3.17
2018-07-21T09:50:36.836Z,3.37
2018-07-21T09:53:05.069Z,3.25
2018-07-21T09:55:33.357Z,3.15
2018-07-21T09:58:01.571Z,3.50
2018-07-21T10:00:35.178Z,3.08
2018-07-21T10:03:03.387Z,3.10
2018-07-21T10:05:31.614Z,3.15
2018-07-21T10:07:59.884Z,2.83
2018-07-21T10:10:28.137Z,3.30
2018-07-21T10:12:56.349Z,3.15
2018-07-21T10:15:24.639Z,3.08
2018-07-21T10:17:52.832Z,3.10
2018-07-21T10:20:21.078Z,2.67
2018-07-21T10:22:49.278Z,2.80
2018-07-21T10:25:22.774Z,3.12
2018-07-21T10:27:56.414Z,3.25
2018-07-21T10:30:26.762Z,3.12
2018-07-21T10:32:57.599Z,3.30
2018-07-21T10:35:25.842Z,3.55
2018-07-21T10:37:54.101Z,3.58
2018-07-21T10:40:22.324Z,3.08
2018-07-21T10:42:50.526Z,3.50
2018-07-21T10:45:18.782Z,3.42
2018-07-21T10:47:47.010Z,4.00
2018-07-21T10:50:15.212Z,4.12
2018-07-21T10:52:43.445Z,4.20
2018-07-21T10:55:11.659Z,3.60
2018-07-21T10:57:39.863Z,3.62
2018-07-21T11:00:08.124Z,3.20
2018-07-21T11:02:36.308Z,3.65
2018-07-21T11:05:04.617Z,4.03
2018-07-21T11:07:32.823Z,4.47
2018-07-21T11:10:01.028Z,5.20
2018-07-21T11:12:29.346Z,5.83
2018-07-21T11:14:57.926Z,5.90
2018-07-21T11:17:26.158Z,7.65
2018-07-21T11:19:54.366Z,7.20
2018-07-21T11:22:22.610Z,7.42
2018-07-21T11:24:50.854Z,7.67
2018-07-21T11:27:19.050Z,7.65
2018-07-21T11:29:47.262Z,6.67
2018-07-21T11:32:15.503Z,6.55
2018-07-21T11:34:43.702Z,6.17
2018-07-21T11:37:11.899Z,6.75
2018-07-21T11:39:40.138Z,6.37
2018-07-21T11:42:08.364Z,6.92
2018-07-21T11:44:36.660Z,6.87
2018-07-21T11:47:05.088Z,6.20
2018-07-21T11:49:33.287Z,6.80
2018-07-21T11:52:01.500Z,7.58
2018-07-21T11:54:29.806Z,8.38
2018-07-21T11:57:00.552Z,8.70
2018-07-21T11:59:29.446Z,6.80
2018-07-21T12:01:58.176Z,8.48
2018-07-21T12:04:27.044Z,8.15
2018-07-21T12:06:55.323Z,8.85
2018-07-21T12:09:24.014Z,7.95
2018-07-21T12:11:52.262Z,7.40
2018-07-21T12:14:20.482Z,6.67
2018-07-21T12:16:48.762Z,6.75
2018-07-21T12:19:16.982Z,6.60
2018-07-21T12:21:45.255Z,6.40
2018-07-21T12:24:13.490Z,7.30
2018-07-21T12:26:41.733Z,6.87
2018-07-21T12:29:09.956Z,5.75
2018-07-21T12:31:38.261Z,6.62
2018-07-21T12:34:06.586Z,6.17
2018-07-21T12:36:35.095Z,5.85
2018-07-21T12:39:03.474Z,6.25
2018-07-21T12:41:31.702Z,4.50
2018-07-21T12:43:59.926Z,4.95
2018-07-21T12:46:28.143Z,5.08
2018-07-21T12:48:56.357Z,4.67
2018-07-21T12:51:24.582Z,5.60
2018-07-21T12:53:52.554Z,5.25
2018-07-21T12:56:20.876Z,4.30
2018-07-21T12:58:49.140Z,4.70
2018-07-21T13:01:17.383Z,4.95
2018-07-21T13:03:45.625Z,5.10
2018-07-21T13:06:13.871Z,5.87
2018-07-21T13:08:42.106Z,6.17
2018-07-21T13:11:10.311Z,5.75
2018-07-21T13:13:38.536Z,5.40
2018-07-21T13:16:06.725Z,4.75
2018-07-21T13:18:34.955Z,5.20
2018-07-21T13:21:03.995Z,5.10
2018-07-21T13:23:32.202Z,5.20
2018-07-21T13:26:00.435Z,5.00
2018-07-21T13:28:28.661Z,4.85
2018-07-21T13:31:03.228Z,5.58
2018-07-21T13:33:31.473Z,4.55
2018-07-21T13:35:59.671Z,5.33
2018-07-21T13:38:27.873Z,5.08
2018-07-21T13:40:56.109Z,5.55
2018-07-21T13:43:24.739Z,4.60
2018-07-21T13:45:52.972Z,4.90
2018-07-21T13:48:21.206Z,4.83
2018-07-21T13:50:49.431Z,4.40
2018-07-21T13:53:17.663Z,4.75
2018-07-21T13:58:37.734Z,4.80
2018-07-21T14:01:06.216Z,4.97
2018-07-21T14:03:34.435Z,4.25
2018-07-21T14:06:02.656Z,4.10
2018-07-21T14:08:30.892Z,4.17
2018-07-21T14:10:59.119Z,3.80
2018-07-21T14:13:27.304Z,3.60
2018-07-21T14:15:55.530Z,3.90
2018-07-21T14:18:23.732Z,3.35
2018-07-21T14:20:51.952Z,3.95
2018-07-21T14:23:20.186Z,3.60
2018-07-21T14:25:48.439Z,3.50
2018-07-21T14:28:16.617Z,3.25
2018-07-21T14:30:44.878Z,4.17
2018-07-21T14:33:13.191Z,3.58
2018-07-21T14:35:41.429Z,3.80
2018-07-21T14:38:09.658Z,3.50
2018-07-21T14:40:37.886Z,4.10
2018-07-21T14:43:06.242Z,3.30
2018-07-21T14:45:34.581Z,3.40
2018-07-21T14:48:02.836Z,3.27
2018-07-21T14:50:32.283Z,3.92
2018-07-21T14:53:00.498Z,3.70
2018-07-21T14:55:29.011Z,4.42
2018-07-21T14:57:57.227Z,3.58
2018-07-21T15:00:25.560Z,4.40
2018-07-21T15:02:53.794Z,4.00
2018-07-21T15:05:22.394Z,4.05
2018-07-21T15:07:50.623Z,3.90
2018-07-21T15:10:18.830Z,4.58
2018-07-21T15:12:47.060Z,3.72
2018-07-21T15:15:15.334Z,3.70
2018-07-21T15:17:43.572Z,3.70
2018-07-21T15:20:11.814Z,3.67
2018-07-21T15:22:40.060Z,4.05
2018-07-21T15:25:08.341Z,3.92
2018-07-21T15:27:36.551Z,4.03
2018-07-21T15:30:04.793Z,4.20
2018-07-21T15:32:33.024Z,3.75
2018-07-21T15:35:01.246Z,3.58
2018-07-21T15:37:29.494Z,3.47
2018-07-21T15:39:57.698Z,3.83
2018-07-21T15:42:25.951Z,3.77
2018-07-21T15:44:54.178Z,3.33
2018-07-21T15:47:22.405Z,4.17
2018-07-21T15:49:50.622Z,3.90
2018-07-21T15:52:18.861Z,3.90
2018-07-21T15:54:47.179Z,4.08
2018-07-21T15:57:15.380Z,3.87
2018-07-21T15:59:43.616Z,4.00
2018-07-21T16:02:11.873Z,3.80
2018-07-21T16:04:40.106Z,4.22
2018-07-21T16:07:08.313Z,4.08
2018-07-21T16:09:36.582Z,4.28
2018-07-21T16:12:04.766Z,4.00
2018-07-21T16:14:32.978Z,3.80
2018-07-21T16:17:01.206Z,4.10
2018-07-21T16:19:29.441Z,4.28
2018-07-21T16:21:57.663Z,3.80
2018-07-21T16:24:25.861Z,3.42
2018-07-21T16:26:54.067Z,3.60
2018-07-21T16:29:22.251Z,3.05
2018-07-21T16:31:50.463Z,3.20
2018-07-21T16:34:18.672Z,3.25
2018-07-21T16:36:46.932Z,2.72
2018-07-21T16:39:15.138Z,3.08
2018-07-21T16:41:43.390Z,2.50
2018-07-21T16:44:11.605Z,2.80
2018-07-21T16:46:39.826Z,2.80
2018-07-21T16:49:08.071Z,2.90
2018-07-21T16:51:36.310Z,2.87
2018-07-21T16:54:04.518Z,2.65
2018-07-21T16:56:32.758Z,3.80
2018-07-21T16:59:00.974Z,3.30
2018-07-21T17:01:29.181Z,3.05
2018-07-21T17:03:57.595Z,3.20
2018-07-21T17:06:25.834Z,3.15
2018-07-21T17:08:54.064Z,3.02
2018-07-21T17:11:22.292Z,3.33
2018-07-21T17:13:50.535Z,3.40
2018-07-21T17:16:18.933Z,3.35
2018-07-21T17:18:47.137Z,3.40
2018-07-21T17:21:15.359Z,2.70
2018-07-21T17:23:43.620Z,2.72
2018-07-21T17:26:11.782Z,3.15
2018-07-21T17:28:39.997Z,2.92
2018-07-21T17:31:08.230Z,2.92
2018-07-21T17:33:36.450Z,3.05
2018-07-21T17:36:04.723Z,2.80
2018-07-21T17:38:32.936Z,3.10
2018-07-21T17:41:01.142Z,3.40
2018-07-21T17:43:29.385Z,3.62
2018-07-21T17:45:57.654Z,3.62
2018-07-21T17:48:25.859Z,3.52
2018-07-21T17:50:54.064Z,3.47
2018-07-21T17:53:22.284Z,4.00
2018-07-21T17:55:50.499Z,3.62
2018-07-21T17:58:18.747Z,3.60
2018-07-21T18:00:46.960Z,3.67
2018-07-21T18:03:15.174Z,3.12
2018-07-21T18:05:43.372Z,3.55
2018-07-21T18:08:11.587Z,3.80
2018-07-21T18:10:39.854Z,3.95
2018-07-21T18:13:08.228Z,3.40
2018-07-21T18:15:36.454Z,3.15
2018-07-21T18:18:04.732Z,3.10
2018-07-21T18:20:32.943Z,3.40
2018-07-21T18:23:01.135Z,3.30
2018-07-21T18:25:29.392Z,3.08
2018-07-21T18:27:57.530Z,2.90
2018-07-21T18:30:25.746Z,3.45
2018-07-21T18:32:53.946Z,3.50
2018-07-21T18:35:22.167Z,3.37
2018-07-21T18:37:50.382Z,3.60
2018-07-21T18:40:18.618Z,3.60
2018-07-21T18:42:46.822Z,4.03
2018-07-21T18:45:15.034Z,3.95
2018-07-21T18:47:43.252Z,4.03
2018-07-21T18:50:11.491Z,4.10
2018-07-21T18:52:39.693Z,3.30
2018-07-21T18:55:07.938Z,3.33
2018-07-21T18:57:36.145Z,3.85
2018-07-21T19:00:04.560Z,3.35
2018-07-21T19:02:32.756Z,3.72
2018-07-21T19:05:00.965Z,4.00
2018-07-21T19:07:29.151Z,3.30
2018-07-21T19:09:57.362Z,3.80
2018-07-21T19:12:31.000Z,3.80
2018-07-21T19:14:59.221Z,4.22
2018-07-21T19:17:27.399Z,3.60
2018-07-21T19:20:01.060Z,3.90
2018-07-21T19:22:29.263Z,4.00
2018-07-21T19:24:57.490Z,3.60
2018-07-21T19:27:30.894Z,3.92
2018-07-21T19:29:59.120Z,4.03
2018-07-21T19:32:32.670Z,3.70
2018-07-21T19:35:00.874Z,3.60
2018-07-21T19:37:34.421Z,3.87
2018-07-21T19:40:02.831Z,4.42
2018-07-21T19:42:30.999Z,3.83
2018-07-21T19:44:59.209Z,3.90
2018-07-21T19:47:27.452Z,4.12
2018-07-21T19:49:55.616Z,3.90
2018-07-21T19:52:23.834Z,4.30
2018-07-21T19:54:52.040Z,4.22
2018-07-21T19:57:20.243Z,4.75
2018-07-21T19:59:48.467Z,4.80
2018-07-21T20:02:16.665Z,4.45
2018-07-21T20:04:44.898Z,4.30
2018-07-21T20:07:13.105Z,4.20
2018-07-21T20:09:41.356Z,4.92
2018-07-21T20:14:44.171Z,4.85
2018-07-21T20:17:12.590Z,5.05
2018-07-21T20:19:40.829Z,5.33
2018-07-21T20:22:09.343Z,4.95
2018-07-21T20:24:37.836Z,5.15
2018-07-21T20:27:06.284Z,4.60
2018-07-21T20:29:34.499Z,5.03
2018-07-21T20:32:02.735Z,4.55
2018-07-21T20:34:30.944Z,4.42
2018-07-21T20:36:59.187Z,4.90
2018-07-21T20:39:27.385Z,4.53
2018-07-21T20:41:55.608Z,4.87
2018-07-21T20:44:23.845Z,4.80
2018-07-21T20:46:52.057Z,4.95
2018-07-21T20:49:20.283Z,4.97
2018-07-21T20:51:48.558Z,4.87
2018-07-21T20:54:16.789Z,5.30
2018-07-21T20:56:45.049Z,6.03
2018-07-21T20:59:13.243Z,6.30
2018-07-21T21:01:41.474Z,7.00
2018-07-21T21:04:09.688Z,6.67
2018-07-21T21:06:37.960Z,6.35
2018-07-21T21:09:08.268Z,5.30
2018-07-21T21:11:36.498Z,5.10
2018-07-21T21:14:04.839Z,5.40
2018-07-21T21:16:33.059Z,4.87
2018-07-21T21:19:01.275Z,5.28
2018-07-21T21:21:29.508Z,5.17
2018-07-21T21:23:57.683Z,5.10
2018-07-21T21:26:25.889Z,4.87
2018-07-21T21:28:54.116Z,5.17
2018-07-21T21:31:22.323Z,4.75
2018-07-21T21:33:50.527Z,5.12
2018-07-21T21:36:18.734Z,5.35
2018-07-21T21:38:46.941Z,5.17
2018-07-21T21:41:15.137Z,4.78
2018-07-21T21:43:43.332Z,5.40
2018-07-21T21:46:11.538Z,5.40
2018-07-21T21:48:39.747Z,5.10
2018-07-21T21:51:07.952Z,5.17
2018-07-21T21:53:36.161Z,5.20
2018-07-21T21:56:04.622Z,5.87
2018-07-21T21:58:32.842Z,5.55
2018-07-21T22:01:09.039Z,5.70
2018-07-21T22:03:37.234Z,6.20
2018-07-21T22:06:05.483Z,6.33
2018-07-21T22:08:33.896Z,6.33
2018-07-21T22:11:02.515Z,6.70
2018-07-21T22:13:30.856Z,6.45
2018-07-21T22:15:59.700Z,6.55
2018-07-21T22:18:28.803Z,6.70
2018-07-21T22:20:57.189Z,6.90
2018-07-21T22:23:25.417Z,7.10
2018-07-21T22:25:53.637Z,7.67
2018-07-21T22:28:21.871Z,6.67
2018-07-21T22:30:50.135Z,6.72
2018-07-21T22:33:18.344Z,6.80
2018-07-21T22:38:21.236Z,6.35
2018-07-21T22:40:49.441Z,7.10
2018-07-21T22:43:17.707Z,6.70
2018-07-21T22:45:45.863Z,6.78
2018-07-21T22:48:14.069Z,6.70
2018-07-21T22:50:42.271Z,6.87
2018-07-21T22:53:10.531Z,7.10
2018-07-21T22:55:38.738Z,6.95
2018-07-21T22:58:06.977Z,6.75
2018-07-21T23:00:35.181Z,6.87
2018-07-21T23:03:03.353Z,6.58
2018-07-21T23:05:31.554Z,7.00
2018-07-21T23:07:59.761Z,7.05
2018-07-21T23:10:27.962Z,6.55
2018-07-21T23:12:56.156Z,7.22
2018-07-21T23:15:26.019Z,7.47
2018-07-21T23:17:54.214Z,6.72
2018-07-21T23:20:22.419Z,7.30
2018-07-21T23:22:50.621Z,7.15
2018-07-21T23:25:18.871Z,6.85
2018-07-21T23:27:47.052Z,7.08
2018-07-21T23:30:15.285Z,7.20
2018-07-21T23:32:43.492Z,6.47
2018-07-21T23:35:11.731Z,7.55
2018-07-21T23:37:39.922Z,6.97
2018-07-21T23:40:08.263Z,6.85
2018-07-21T23:42:36.469Z,6.65
2018-07-21T23:45:04.663Z,6.80
2018-07-21T23:47:32.841Z,6.83
2018-07-21T23:50:01.085Z,6.97
2018-07-21T23:52:29.339Z,7.45
2018-07-21T23:54:57.541Z,7.08
2018-07-21T23:57:25.748Z,7.25
2018-07-21T23:59:53.969Z,7.20
